Time;durP1;ratioP1;P1;durP2;ratioP2;P2;SDS_P1;SDS_P2;PMS_P1;PMS_P2;Temp;Humidity;BMP_temperature;BMP_pressure;BME280_temperature;BME280_humidity;BME280_pressure;Samples;Min_cycle;Max_cycle;Signal;HPM_P1;HPM_P2
2021/04/19 00:00:24;;;;;;;19.25;16.17;;;;;;;;;;5093918;28;20250;-62
2021/04/19 00:02:51;;;;;;;20.63;15.52;;;;;;;;;;5094237;28;20212;-61
2021/04/19 00:05:19;;;;;;;17.90;14.73;;;;;;;;;;5093948;28;20589;-61
2021/04/19 00:07:46;;;;;;;16.58;14.15;;;;;;;;;;5093595;28;20208;-61
2021/04/19 00:10:15;;;;;;;17.20;15.38;;;;;;;;;;5095267;28;20207;-62
2021/04/19 00:12:41;;;;;;;18.52;15.80;;;;;;;;;;5096736;28;20199;-61
2021/04/19 00:15:10;;;;;;;17.23;14.60;;;;;;;;;;5094187;28;20224;-61
2021/04/19 00:17:38;;;;;;;20.35;15.98;;;;;;;;;;5094078;28;20213;-62
2021/04/19 00:20:06;;;;;;;20.42;17.10;;;;;;;;;;5093107;28;20215;-61
2021/04/19 00:22:33;;;;;;;20.02;14.13;;;;;;;;;;5093750;28;20200;-61
2021/04/19 00:25:00;;;;;;;19.58;15.50;;;;;;;;;;5097600;28;20217;-60
2021/04/19 00:27:26;;;;;;;19.80;15.90;;;;;;;;;;5097638;28;20200;-61
2021/04/19 00:29:53;;;;;;;19.85;15.75;;;;;;;;;;5097336;28;20700;-61
2021/04/19 00:32:20;;;;;;;19.63;16.20;;;;;;;;;;5097612;28;20574;-61
2021/04/19 00:34:48;;;;;;;19.65;16.40;;;;;;;;;;5097688;28;20225;-61
2021/04/19 00:37:15;;;;;;;24.95;18.35;;;;;;;;;;5097977;28;20208;-61
2021/04/19 00:39:42;;;;;;;22.80;16.77;;;;;;;;;;5097952;28;20196;-61
2021/04/19 00:42:09;;;;;;;24.55;19.33;;;;;;;;;;5098073;28;20204;-61
2021/04/19 00:44:36;;;;;;;19.63;17.52;;;;;;;;;;5097143;28;20204;-62
2021/04/19 00:47:02;;;;;;;22.80;19.27;;;;;;;;;;5097152;28;20200;-61
2021/04/19 00:49:29;;;;;;;22.42;19.42;;;;;;;;;;5097316;28;20224;-61
2021/04/19 00:51:57;;;;;;;22.67;19.40;;;;;;;;;;5097100;28;20196;-61
2021/04/19 00:54:25;;;;;;;26.35;21.50;;;;;;;;;;5097076;28;20201;-62
2021/04/19 00:56:52;;;;;;;24.27;19.15;;;;;;;;;;5097114;28;20205;-62
2021/04/19 00:59:19;;;;;;;23.13;19.88;;;;;;;;;;5096498;28;20201;-61
2021/04/19 01:01:47;;;;;;;30.05;21.10;;;;;;;;;;5097014;28;20273;-62
2021/04/19 01:04:13;;;;;;;25.83;20.67;;;;;;;;;;5097050;28;20200;-62
2021/04/19 01:06:40;;;;;;;27.40;21.30;;;;;;;;;;5096435;28;20227;-61
2021/04/19 01:09:08;;;;;;;23.70;17.90;;;;;;;;;;5096594;28;20232;-61
2021/04/19 01:11:35;;;;;;;21.63;19.30;;;;;;;;;;5096708;28;20557;-61
2021/04/19 01:14:02;;;;;;;22.90;18.63;;;;;;;;;;5097347;28;20196;-61
2021/04/19 01:16:29;;;;;;;23.52;18.83;;;;;;;;;;5096684;28;20567;-62
2021/04/19 01:18:55;;;;;;;23.33;18.95;;;;;;;;;;5096804;28;20200;-62
2021/04/19 01:21:23;;;;;;;22.95;19.58;;;;;;;;;;5096859;28;20208;-61
2021/04/19 01:23:50;;;;;;;24.55;21.00;;;;;;;;;;5096351;28;20250;-61
2021/04/19 01:26:17;;;;;;;24.63;20.10;;;;;;;;;;5096527;28;20227;-62
2021/04/19 01:28:44;;;;;;;27.20;20.42;;;;;;;;;;5096524;28;20254;-62
2021/04/19 01:31:10;;;;;;;27.00;22.80;;;;;;;;;;5096498;28;20223;-62
2021/04/19 01:33:37;;;;;;;28.05;21.40;;;;;;;;;;5096344;28;20614;-62
2021/04/19 01:36:05;;;;;;;27.85;21.08;;;;;;;;;;5095721;28;20216;-61
2021/04/19 01:38:33;;;;;;;28.08;22.65;;;;;;;;;;5096061;28;20669;-62
2021/04/19 01:41:00;;;;;;;28.60;21.35;;;;;;;;;;5096288;28;20204;-62
2021/04/19 01:43:26;;;;;;;32.13;22.50;;;;;;;;;;5096064;28;20212;-62
2021/04/19 01:45:53;;;;;;;31.75;23.40;;;;;;;;;;5096099;28;20216;-61
2021/04/19 01:48:21;;;;;;;30.98;24.75;;;;;;;;;;5096238;28;20224;-62
2021/04/19 01:50:49;;;;;;;28.92;22.77;;;;;;;;;;5096011;28;20200;-61
2021/04/19 01:53:16;;;;;;;30.85;24.48;;;;;;;;;;5096030;28;20201;-62
2021/04/19 01:55:44;;;;;;;29.30;22.52;;;;;;;;;;5095894;28;20221;-61
2021/04/19 01:58:13;;;;;;;30.92;23.58;;;;;;;;;;5095638;28;20247;-61
2021/04/19 02:00:40;;;;;;;31.30;24.95;;;;;;;;;;5095733;28;20673;-62
2021/04/19 02:03:15;;;;;;;33.95;25.30;;;;;;;;;;5095858;28;20227;-61
2021/04/19 02:05:44;;;;;;;31.10;23.60;;;;;;;;;;5095683;28;20227;-60
2021/04/19 02:08:16;;;;;;;30.05;22.63;;;;;;;;;;5095318;28;20304;-61
2021/04/19 02:10:46;;;;;;;32.63;24.63;;;;;;;;;;5095784;28;20189;-61
2021/04/19 02:13:15;;;;;;;32.65;23.83;;;;;;;;;;5095806;28;20263;-60
2021/04/19 02:15:46;;;;;;;28.50;23.92;;;;;;;;;;5095475;28;20221;-61
2021/04/19 02:18:15;;;;;;;30.90;24.25;;;;;;;;;;5095279;28;20179;-61
2021/04/19 02:20:44;;;;;;;32.13;24.20;;;;;;;;;;5096522;28;20215;-61
2021/04/19 02:23:16;;;;;;;31.48;24.55;;;;;;;;;;5095376;28;20207;-62
2021/04/19 02:25:44;;;;;;;31.58;24.58;;;;;;;;;;5095356;28;20225;-61
2021/04/19 02:28:14;;;;;;;32.15;25.63;;;;;;;;;;5094910;28;20216;-62
2021/04/19 02:30:43;;;;;;;37.25;27.13;;;;;;;;;;5095387;28;20196;-61
2021/04/19 02:33:12;;;;;;;35.08;25.30;;;;;;;;;;5095965;28;20204;-63
2021/04/19 02:35:41;;;;;;;32.72;25.48;;;;;;;;;;5094970;28;20220;-62
2021/04/19 02:38:09;;;;;;;32.88;25.85;;;;;;;;;;5095170;28;20203;-62
2021/04/19 02:40:37;;;;;;;33.95;25.40;;;;;;;;;;5095106;28;20220;-61
2021/04/19 02:43:05;;;;;;;35.22;25.63;;;;;;;;;;5095300;28;20206;-62
2021/04/19 02:45:32;;;;;;;31.63;25.63;;;;;;;;;;5095198;28;20586;-61
2021/04/19 02:47:59;;;;;;;32.70;25.48;;;;;;;;;;5094173;28;20254;-61
2021/04/19 02:50:27;;;;;;;35.50;25.65;;;;;;;;;;5095496;28;20224;-62
2021/04/19 02:52:55;;;;;;;30.08;24.10;;;;;;;;;;5095596;28;20261;-62
2021/04/19 02:55:24;;;;;;;34.25;25.42;;;;;;;;;;5094870;28;20231;-61
2021/04/19 02:57:53;;;;;;;33.25;26.08;;;;;;;;;;5094865;28;20554;-62
2021/04/19 03:00:24;;;;;;;34.50;26.23;;;;;;;;;;5095056;28;20208;-62
2021/04/19 03:02:52;;;;;;;33.38;24.48;;;;;;;;;;5094673;28;20296;-62
2021/04/19 03:05:19;;;;;;;37.67;25.10;;;;;;;;;;5094440;28;20715;-62
2021/04/19 03:07:47;;;;;;;35.60;25.95;;;;;;;;;;5094441;28;20596;-63
2021/04/19 03:10:17;;;;;;;33.20;25.67;;;;;;;;;;5094489;28;20206;-61
2021/04/19 03:12:45;;;;;;;33.88;25.50;;;;;;;;;;5094909;28;20200;-61
2021/04/19 03:15:15;;;;;;;32.65;25.00;;;;;;;;;;5094411;28;20220;-62
2021/04/19 03:17:43;;;;;;;35.47;26.08;;;;;;;;;;5094540;28;20197;-62
2021/04/19 03:20:12;;;;;;;33.13;25.80;;;;;;;;;;5095318;28;20590;-63
2021/04/19 03:22:41;;;;;;;43.22;26.75;;;;;;;;;;5094495;28;20219;-62
2021/04/19 03:25:09;;;;;;;33.58;25.25;;;;;;;;;;5093899;28;20216;-62
2021/04/19 03:27:37;;;;;;;35.33;27.20;;;;;;;;;;5094366;28;20257;-62
2021/04/19 03:30:05;;;;;;;36.80;26.63;;;;;;;;;;5094259;28;20235;-61
2021/04/19 03:32:33;;;;;;;37.08;25.67;;;;;;;;;;5093918;28;20287;-62
2021/04/19 03:35:03;;;;;;;40.95;26.10;;;;;;;;;;5094132;28;20711;-62
2021/04/19 03:37:31;;;;;;;37.42;26.88;;;;;;;;;;5094263;28;20269;-61
2021/04/19 03:40:00;;;;;;;41.55;27.73;;;;;;;;;;5094262;28;20192;-61
2021/04/19 03:42:28;;;;;;;39.15;26.92;;;;;;;;;;5094624;28;20204;-62
2021/04/19 03:44:55;;;;;;;35.25;26.83;;;;;;;;;;5093784;28;20693;-62
2021/04/19 03:47:23;;;;;;;39.90;27.23;;;;;;;;;;5095455;28;20204;-62
2021/04/19 03:49:53;;;;;;;36.47;26.75;;;;;;;;;;5096932;28;20224;-62
2021/04/19 03:52:22;;;;;;;35.45;26.77;;;;;;;;;;5096714;28;20253;-62
2021/04/19 03:54:50;;;;;;;34.00;26.08;;;;;;;;;;5098964;28;20231;-60
2021/04/19 03:57:18;;;;;;;32.88;25.85;;;;;;;;;;5104630;28;20200;-62
2021/04/19 03:59:47;;;;;;;34.47;25.45;;;;;;;;;;5101513;28;20265;-61
2021/04/19 04:02:15;;;;;;;33.28;24.70;;;;;;;;;;5094784;28;20222;-61
2021/04/19 04:08:03;;;;;;;33.30;25.30;;;;;;;;;;5113152;27;20540;-62
2021/04/19 04:10:30;;;;;;;31.95;23.90;;;;;;;;;;5112391;28;20569;-61
2021/04/19 04:12:57;;;;;;;34.92;25.10;;;;;;;;;;5112268;28;20207;-60
2021/04/19 04:15:24;;;;;;;33.95;25.15;;;;;;;;;;5111285;28;20231;-61
2021/04/19 04:17:50;;;;;;;30.50;23.67;;;;;;;;;;5111042;28;20196;-60
2021/04/19 04:20:17;;;;;;;31.33;24.40;;;;;;;;;;5111325;28;20203;-62
2021/04/19 04:22:44;;;;;;;33.13;23.30;;;;;;;;;;5111668;28;20207;-62
2021/04/19 04:25:13;;;;;;;29.02;23.10;;;;;;;;;;5112215;28;20309;-61
2021/04/19 04:27:40;;;;;;;31.42;23.00;;;;;;;;;;5112645;28;20212;-61
2021/04/19 04:30:07;;;;;;;29.00;21.70;;;;;;;;;;5112311;28;20253;-61
2021/04/19 04:32:34;;;;;;;27.75;22.48;;;;;;;;;;5121272;28;20199;-62
2021/04/19 04:35:00;;;;;;;29.30;23.10;;;;;;;;;;5123106;28;20216;-60
2021/04/19 04:37:27;;;;;;;28.00;22.50;;;;;;;;;;5119724;28;20200;-61
2021/04/19 04:39:54;;;;;;;25.95;21.05;;;;;;;;;;5120153;28;20204;-62
2021/04/19 04:42:24;;;;;;;29.65;22.90;;;;;;;;;;5122551;28;20693;-61
2021/04/19 04:44:51;;;;;;;27.80;20.98;;;;;;;;;;5123859;28;20634;-60
2021/04/19 04:47:21;;;;;;;24.88;20.80;;;;;;;;;;5121189;28;20281;-61
2021/04/19 04:49:51;;;;;;;26.05;19.70;;;;;;;;;;5120360;28;20195;-61
2021/04/19 04:52:19;;;;;;;24.67;18.67;;;;;;;;;;5118916;28;20185;-61
2021/04/19 04:54:51;;;;;;;25.73;20.48;;;;;;;;;;5117279;28;20220;-60
2021/04/19 04:57:22;;;;;;;24.52;20.02;;;;;;;;;;5117429;28;20237;-62
2021/04/19 04:59:51;;;;;;;26.05;20.20;;;;;;;;;;5116587;28;20666;-62
2021/04/19 05:02:20;;;;;;;22.52;20.00;;;;;;;;;;5116922;28;20612;-61
2021/04/19 05:04:47;;;;;;;24.65;18.63;;;;;;;;;;5117593;28;20219;-62
2021/04/19 05:07:15;;;;;;;23.55;18.50;;;;;;;;;;5116054;28;20226;-61
2021/04/19 05:09:42;;;;;;;24.90;18.90;;;;;;;;;;5116734;28;20200;-63
2021/04/19 05:12:11;;;;;;;21.88;17.55;;;;;;;;;;5112124;28;20199;-62
2021/04/19 05:14:39;;;;;;;23.50;19.38;;;;;;;;;;5112392;28;20781;-62
2021/04/19 05:17:07;;;;;;;23.67;19.17;;;;;;;;;;5110943;28;20196;-61
2021/04/19 05:19:34;;;;;;;22.80;19.40;;;;;;;;;;5096818;28;20207;-62
2021/04/19 05:22:01;;;;;;;24.30;18.73;;;;;;;;;;5097274;28;20204;-62
2021/04/19 05:24:28;;;;;;;27.40;18.80;;;;;;;;;;5096703;28;20197;-62
2021/04/19 05:26:55;;;;;;;24.85;18.90;;;;;;;;;;5096583;28;20691;-62
2021/04/19 05:29:22;;;;;;;22.08;18.30;;;;;;;;;;5096239;28;20672;-62
2021/04/19 05:31:49;;;;;;;26.27;19.35;;;;;;;;;;5095828;28;20211;-62
2021/04/19 05:34:16;;;;;;;25.08;19.15;;;;;;;;;;5095959;28;20200;-62
2021/04/19 05:36:43;;;;;;;23.10;18.30;;;;;;;;;;5096356;28;20220;-62
2021/04/19 05:39:11;;;;;;;23.25;18.85;;;;;;;;;;5096078;28;20200;-63
2021/04/19 05:41:38;;;;;;;20.98;17.92;;;;;;;;;;5096196;28;20740;-63
2021/04/19 05:44:05;;;;;;;23.52;17.52;;;;;;;;;;5096394;28;20252;-63
2021/04/19 05:46:32;;;;;;;24.75;20.33;;;;;;;;;;5095769;28;20223;-62
2021/04/19 05:48:59;;;;;;;25.40;19.23;;;;;;;;;;5097511;28;20196;-62
2021/04/19 05:51:28;;;;;;;27.10;20.13;;;;;;;;;;5096106;28;20243;-63
2021/04/19 05:53:56;;;;;;;25.33;18.65;;;;;;;;;;5095952;28;20196;-63
2021/04/19 05:56:30;;;;;;;23.90;18.30;;;;;;;;;;5096774;28;20246;-63
2021/04/19 05:59:01;;;;;;;23.67;18.73;;;;;;;;;;5096267;28;20184;-62
2021/04/19 06:01:28;;;;;;;26.23;18.05;;;;;;;;;;5096670;28;20189;-63
2021/04/19 06:03:57;;;;;;;23.42;18.50;;;;;;;;;;5097228;28;20211;-62
2021/04/19 06:06:30;;;;;;;22.75;17.65;;;;;;;;;;5097171;28;20225;-63
2021/04/19 06:09:00;;;;;;;22.98;16.77;;;;;;;;;;5096103;28;20188;-63
2021/04/19 06:11:29;;;;;;;22.45;18.75;;;;;;;;;;5096204;28;20192;-63
2021/04/19 06:13:57;;;;;;;21.02;17.02;;;;;;;;;;5095491;28;20246;-61
2021/04/19 06:16:25;;;;;;;17.88;15.57;;;;;;;;;;5095676;28;20221;-63
2021/04/19 06:18:53;;;;;;;20.08;16.40;;;;;;;;;;5095822;28;20200;-62
2021/04/19 06:21:20;;;;;;;19.23;16.75;;;;;;;;;;5095329;28;20197;-62
2021/04/19 06:23:47;;;;;;;20.90;16.25;;;;;;;;;;5095229;28;20200;-63
2021/04/19 06:26:14;;;;;;;18.63;15.15;;;;;;;;;;5095077;28;20684;-64
2021/04/19 06:28:41;;;;;;;20.42;16.77;;;;;;;;;;5095515;28;20201;-60
2021/04/19 06:31:09;;;;;;;23.10;15.50;;;;;;;;;;5094810;28;20249;-63
2021/04/19 06:33:36;;;;;;;19.52;15.73;;;;;;;;;;5095876;28;20197;-63
2021/04/19 06:36:03;;;;;;;21.08;15.68;;;;;;;;;;5095262;28;20606;-62
2021/04/19 06:38:29;;;;;;;17.60;14.60;;;;;;;;;;5095313;28;20332;-62
2021/04/19 06:40:57;;;;;;;19.67;16.10;;;;;;;;;;5095102;28;20571;-62
2021/04/19 06:43:24;;;;;;;18.77;15.73;;;;;;;;;;5095237;28;20205;-62
2021/04/19 06:45:51;;;;;;;20.75;17.05;;;;;;;;;;5095494;28;20463;-63
2021/04/19 06:48:18;;;;;;;21.52;17.30;;;;;;;;;;5095558;28;20197;-62
2021/04/19 06:50:45;;;;;;;21.70;15.60;;;;;;;;;;5095260;28;20209;-63
2021/04/19 06:53:14;;;;;;;19.10;15.63;;;;;;;;;;5095193;28;20235;-62
2021/04/19 06:55:41;;;;;;;20.20;15.20;;;;;;;;;;5095202;28;20216;-62
2021/04/19 06:58:12;;;;;;;19.48;14.50;;;;;;;;;;5094915;28;20259;-63
2021/04/19 07:00:39;;;;;;;18.83;15.10;;;;;;;;;;5094828;28;20193;-63
2021/04/19 07:03:07;;;;;;;23.70;16.25;;;;;;;;;;5094939;28;20217;-62
2021/04/19 07:05:34;;;;;;;23.13;17.90;;;;;;;;;;5094699;28;20256;-62
2021/04/19 07:08:07;;;;;;;23.07;18.83;;;;;;;;;;5094219;28;21010;-62
2021/04/19 07:10:34;;;;;;;23.73;21.08;;;;;;;;;;5094805;28;20428;-63
2021/04/19 07:13:07;;;;;;;25.55;20.85;;;;;;;;;;5095039;28;20213;-62
2021/04/19 07:15:34;;;;;;;25.73;20.98;;;;;;;;;;5096113;28;20221;-63
2021/04/19 07:18:01;;;;;;;23.48;19.55;;;;;;;;;;5094830;28;20727;-63
2021/04/19 07:20:28;;;;;;;23.30;19.35;;;;;;;;;;5094828;28;20200;-63
2021/04/19 07:22:55;;;;;;;24.38;19.90;;;;;;;;;;5095725;28;20201;-63
2021/04/19 07:25:22;;;;;;;21.90;18.88;;;;;;;;;;5098233;28;20222;-62
2021/04/19 07:27:49;;;;;;;25.55;19.77;;;;;;;;;;5096546;28;20727;-60
2021/04/19 07:30:16;;;;;;;22.92;18.70;;;;;;;;;;5097082;28;20208;-62
2021/04/19 07:32:44;;;;;;;23.40;19.15;;;;;;;;;;5095634;28;20208;-62
2021/04/19 07:35:12;;;;;;;22.52;19.27;;;;;;;;;;5099776;28;20217;-63
2021/04/19 07:37:39;;;;;;;27.83;19.48;;;;;;;;;;5101589;28;20200;-62
2021/04/19 07:40:07;;;;;;;20.98;18.58;;;;;;;;;;5104364;28;20249;-62
2021/04/19 07:42:37;;;;;;;21.15;18.33;;;;;;;;;;5102416;28;20235;-62
2021/04/19 07:45:04;;;;;;;20.55;17.75;;;;;;;;;;5103369;28;20227;-61
2021/04/19 07:47:33;;;;;;;18.77;16.77;;;;;;;;;;5105205;28;20240;-63
2021/04/19 07:50:10;;;;;;;22.35;17.63;;;;;;;;;;5108644;28;20197;-63
2021/04/19 07:52:50;;;;;;;21.35;18.55;;;;;;;;;;5106103;28;20267;-62
2021/04/19 07:55:18;;;;;;;20.05;17.90;;;;;;;;;;5106517;28;20232;-63
2021/04/19 07:57:46;;;;;;;17.90;15.15;;;;;;;;;;5104192;28;20202;-62
2021/04/19 08:00:22;;;;;;;19.17;16.63;;;;;;;;;;5103618;28;20632;-62
2021/04/19 08:02:56;;;;;;;21.47;16.43;;;;;;;;;;5104660;28;20417;-63
2021/04/19 08:05:30;;;;;;;20.95;16.20;;;;;;;;;;5103090;28;20819;-63
2021/04/19 08:07:57;;;;;;;19.17;16.17;;;;;;;;;;5099644;28;20224;-62
2021/04/19 08:10:24;;;;;;;18.35;15.90;;;;;;;;;;5101819;28;20447;-63
2021/04/19 08:13:00;;;;;;;19.20;16.20;;;;;;;;;;5100294;28;20217;-62
2021/04/19 08:15:27;;;;;;;24.23;16.60;;;;;;;;;;5099966;28;20216;-61
2021/04/19 08:17:59;;;;;;;26.23;21.08;;;;;;;;;;5099526;28;20254;-65
2021/04/19 08:20:26;;;;;;;27.80;20.02;;;;;;;;;;5096952;28;20211;-62
2021/04/19 08:23:03;;;;;;;24.13;20.88;;;;;;;;;;5095376;28;20274;-63
2021/04/19 08:25:30;;;;;;;23.33;20.23;;;;;;;;;;5094278;28;20294;-62
2021/04/19 08:28:01;;;;;;;23.43;20.03;;;;;;;;;;5094438;28;20554;-61
2021/04/19 08:30:28;;;;;;;23.20;20.60;;;;;;;;;;5095519;28;20438;-61
2021/04/19 08:32:56;;;;;;;26.40;22.10;;;;;;;;;;5093818;28;20788;-61
2021/04/19 08:35:23;;;;;;;25.20;21.20;;;;;;;;;;5093592;28;20830;-61
2021/04/19 08:37:50;;;;;;;24.60;20.83;;;;;;;;;;5093920;28;20438;-62
2021/04/19 08:40:18;;;;;;;31.80;24.60;;;;;;;;;;5094023;28;20444;-63
2021/04/19 08:42:45;;;;;;;32.40;26.83;;;;;;;;;;5093350;28;20451;-63
2021/04/19 08:45:12;;;;;;;29.13;24.80;;;;;;;;;;5093436;28;20477;-65
2021/04/19 08:47:40;;;;;;;26.43;23.33;;;;;;;;;;5093220;28;21004;-62
2021/04/19 08:50:09;;;;;;;31.03;25.40;;;;;;;;;;5093500;28;20933;-64
2021/04/19 08:52:36;;;;;;;33.67;25.97;;;;;;;;;;5093554;28;20477;-65
2021/04/19 08:55:04;;;;;;;29.97;23.90;;;;;;;;;;5097451;28;20472;-63
2021/04/19 08:57:32;;;;;;;26.00;22.27;;;;;;;;;;5096797;28;20444;-65
2021/04/19 08:59:59;;;;;;;25.23;22.53;;;;;;;;;;5097106;28;20447;-62
2021/04/19 09:02:27;;;;;;;25.40;22.73;;;;;;;;;;5097375;28;20470;-61
2021/04/19 09:05:07;;;;;;;24.00;21.60;;;;;;;;;;5108323;28;20463;-62
2021/04/19 09:07:34;;;;;;;18.63;15.80;;;;;;;;;;5102276;28;20492;-63
2021/04/19 09:10:01;;;;;;;20.70;16.50;;;;;;;;;;5097249;28;20450;-64
2021/04/19 09:12:29;;;;;;;22.60;16.90;;;;;;;;;;5097003;28;20437;-66
2021/04/19 09:15:10;;;;;;;19.43;16.50;;;;;;;;;;5096703;28;20468;-67
2021/04/19 09:17:38;;;;;;;21.90;18.20;;;;;;;;;;5096984;28;20520;-64
2021/04/19 09:20:07;;;;;;;20.57;18.50;;;;;;;;;;5097007;28;20958;-66
2021/04/19 09:22:34;;;;;;;22.60;18.90;;;;;;;;;;5096903;28;20452;-64
2021/04/19 09:25:05;;;;;;;21.50;17.80;;;;;;;;;;5096671;28;20476;-64
2021/04/19 09:27:42;;;;;;;21.90;17.70;;;;;;;;;;5097594;28;20839;-61
2021/04/19 09:30:37;;;;;;;29.17;22.90;;;;;;;;;;5096547;28;20459;-62
2021/04/19 09:33:25;;;;;;;30.03;23.60;;;;;;;;;;5061076;28;20487;-62
2021/04/19 09:35:54;;;;;;;22.93;18.50;;;;;;;;;;5091761;28;20484;-62
2021/04/19 09:38:41;;;;;;;22.20;18.40;;;;;;;;;;5096542;28;20543;-61
2021/04/19 09:41:09;;;;;;;21.83;18.90;;;;;;;;;;5096805;28;20562;-63
2021/04/19 09:43:36;;;;;;;25.30;19.80;;;;;;;;;;5096854;28;20554;-64
2021/04/19 09:46:04;;;;;;;25.77;20.60;;;;;;;;;;5096624;28;20474;-62
2021/04/19 09:48:46;;;;;;;27.73;21.53;;;;;;;;;;5097867;28;20432;-64
2021/04/19 09:51:18;;;;;;;25.30;20.30;;;;;;;;;;5096581;28;20499;-62
2021/04/19 09:53:46;;;;;;;24.50;21.90;;;;;;;;;;5096330;28;20966;-62
2021/04/19 09:56:13;;;;;;;26.17;22.63;;;;;;;;;;5096266;28;20552;-62
2021/04/19 09:58:40;;;;;;;25.30;21.90;;;;;;;;;;5097043;28;20448;-63
2021/04/19 10:01:07;;;;;;;22.43;19.47;;;;;;;;;;5101920;28;20974;-64
2021/04/19 10:03:34;;;;;;;18.37;16.43;;;;;;;;;;5102562;28;20502;-63
2021/04/19 10:06:02;;;;;;;20.87;17.90;;;;;;;;;;5103078;28;20503;-64
2021/04/19 10:08:31;;;;;;;21.20;18.07;;;;;;;;;;5097395;28;20960;-63
2021/04/19 10:10:59;;;;;;;22.50;16.57;;;;;;;;;;5096499;28;20519;-62
2021/04/19 10:13:32;;;;;;;18.80;15.43;;;;;;;;;;5097057;28;20446;-68
2021/04/19 10:16:06;;;;;;;17.00;15.27;;;;;;;;;;5097068;28;20477;-61
2021/04/19 10:18:33;;;;;;;18.77;15.40;;;;;;;;;;5095665;28;20470;-63
2021/04/19 10:21:00;;;;;;;19.73;16.70;;;;;;;;;;5095166;28;20460;-62
2021/04/19 10:23:40;;;;;;;17.60;15.70;;;;;;;;;;5095652;28;20471;-62
2021/04/19 10:26:07;;;;;;;19.13;15.93;;;;;;;;;;5095278;28;20547;-63
2021/04/19 10:28:36;;;;;;;18.40;15.87;;;;;;;;;;5094961;28;20446;-63
2021/04/19 10:31:12;;;;;;;18.97;16.57;;;;;;;;;;5095159;28;20819;-62
2021/04/19 10:33:39;;;;;;;20.20;18.00;;;;;;;;;;5095148;28;20436;-63
2021/04/19 10:36:16;;;;;;;18.40;16.33;;;;;;;;;;5094687;28;20460;-64
2021/04/19 10:38:44;;;;;;;16.33;14.70;;;;;;;;;;5095108;28;20478;-62
2021/04/19 10:41:11;;;;;;;19.23;15.27;;;;;;;;;;5094544;28;20448;-63
2021/04/19 10:43:38;;;;;;;18.60;16.57;;;;;;;;;;5094821;28;20447;-64
2021/04/19 10:46:22;;;;;;;18.50;16.03;;;;;;;;;;5094587;28;20797;-64
2021/04/19 10:48:48;;;;;;;16.23;14.47;;;;;;;;;;5095315;28;21015;-63
2021/04/19 10:51:16;;;;;;;16.50;14.80;;;;;;;;;;5094753;28;20540;-65
2021/04/19 10:53:44;;;;;;;17.67;15.70;;;;;;;;;;5100600;28;20440;-62
2021/04/19 10:56:14;;;;;;;18.60;16.00;;;;;;;;;;5105226;28;20512;-62
2021/04/19 10:58:41;;;;;;;20.60;16.10;;;;;;;;;;5095166;28;20459;-59
2021/04/19 11:01:08;;;;;;;18.10;15.90;;;;;;;;;;5094690;28;20506;-61
2021/04/19 11:03:36;;;;;;;20.57;16.60;;;;;;;;;;5094313;28;20542;-61
2021/04/19 11:06:03;;;;;;;18.17;16.27;;;;;;;;;;5094216;28;20484;-61
2021/04/19 11:08:47;;;;;;;18.63;16.40;;;;;;;;;;5094425;28;20804;-60
2021/04/19 11:11:28;;;;;;;19.23;17.13;;;;;;;;;;5094698;28;20441;-61
2021/04/19 11:14:06;;;;;;;18.30;16.40;;;;;;;;;;5095111;28;20537;-61
2021/04/19 11:16:33;;;;;;;20.00;17.90;;;;;;;;;;5094370;28;20491;-62
2021/04/19 11:19:00;;;;;;;18.10;16.20;;;;;;;;;;5094903;28;20445;-61
2021/04/19 11:21:31;;;;;;;19.63;17.67;;;;;;;;;;5094184;28;20825;-66
2021/04/19 11:24:09;;;;;;;20.97;18.70;;;;;;;;;;5094987;28;20475;-60
2021/04/19 11:26:36;;;;;;;21.53;19.30;;;;;;;;;;5093701;28;20485;-60
2021/04/19 11:29:04;;;;;;;19.40;17.30;;;;;;;;;;5094162;28;20485;-64
2021/04/19 11:31:42;;;;;;;19.80;17.20;;;;;;;;;;5094389;28;20810;-63
2021/04/19 11:34:10;;;;;;;17.83;16.03;;;;;;;;;;5095338;28;20482;-61
2021/04/19 11:36:39;;;;;;;18.37;15.73;;;;;;;;;;5094347;28;20455;-61
2021/04/19 11:39:14;;;;;;;17.40;15.70;;;;;;;;;;5094364;28;21011;-62
2021/04/19 11:41:41;;;;;;;16.27;14.57;;;;;;;;;;5094290;28;20822;-61
2021/04/19 11:44:08;;;;;;;15.90;14.30;;;;;;;;;;5093671;28;20444;-62
2021/04/19 11:46:40;;;;;;;20.77;14.90;;;;;;;;;;5093780;28;20466;-59
2021/04/19 11:49:07;;;;;;;15.17;13.70;;;;;;;;;;5093945;28;20429;-62
2021/04/19 11:51:34;;;;;;;16.50;14.43;;;;;;;;;;5093551;28;20522;-63
2021/04/19 11:54:01;;;;;;;17.50;15.70;;;;;;;;;;5094343;28;20481;-63
2021/04/19 11:56:28;;;;;;;19.37;17.53;;;;;;;;;;5097211;28;20588;-61
2021/04/19 11:58:55;;;;;;;18.77;16.63;;;;;;;;;;5095849;28;20479;-63
2021/04/19 12:01:23;;;;;;;18.10;16.13;;;;;;;;;;5094206;28;20472;-67
2021/04/19 12:03:51;;;;;;;19.27;16.20;;;;;;;;;;5093823;28;20510;-64
2021/04/19 12:06:18;;;;;;;18.27;16.37;;;;;;;;;;5093174;28;20487;-64
2021/04/19 12:08:46;;;;;;;16.73;15.03;;;;;;;;;;5094342;28;20864;-60
2021/04/19 12:11:13;;;;;;;18.30;13.40;;;;;;;;;;5095657;28;20440;-61
2021/04/19 12:13:42;;;;;;;15.87;14.17;;;;;;;;;;5095814;28;20831;-61
2021/04/19 12:16:09;;;;;;;16.30;14.60;;;;;;;;;;5094835;28;20484;-61
2021/04/19 12:18:36;;;;;;;16.20;14.50;;;;;;;;;;5097130;28;20446;-61
2021/04/19 12:21:04;;;;;;;16.83;14.53;;;;;;;;;;5097592;28;20447;-62
2021/04/19 12:23:31;;;;;;;15.23;13.63;;;;;;;;;;5097626;28;20453;-63
2021/04/19 12:25:58;;;;;;;15.93;14.27;;;;;;;;;;5098255;28;20463;-62
2021/04/19 12:28:25;;;;;;;16.30;13.37;;;;;;;;;;5097435;28;20982;-60
2021/04/19 12:30:54;;;;;;;15.30;13.70;;;;;;;;;;5098848;28;20532;-60
2021/04/19 12:33:21;;;;;;;15.43;13.77;;;;;;;;;;5098828;28;20446;-62
2021/04/19 12:35:48;;;;;;;16.80;14.57;;;;;;;;;;5098265;28;20476;-61
2021/04/19 12:38:15;;;;;;;16.00;13.87;;;;;;;;;;5098152;28;20449;-61
2021/04/19 12:40:42;;;;;;;19.60;14.93;;;;;;;;;;5098042;28;20451;-62
2021/04/19 12:43:10;;;;;;;16.00;13.30;;;;;;;;;;5097960;28;20450;-60
2021/04/19 12:45:37;;;;;;;18.13;14.17;;;;;;;;;;5097928;28;20465;-62
2021/04/19 12:48:05;;;;;;;15.67;13.37;;;;;;;;;;5097505;28;20475;-61
2021/04/19 12:50:32;;;;;;;16.70;14.17;;;;;;;;;;5098656;28;20452;-61
2021/04/19 12:52:59;;;;;;;18.03;14.77;;;;;;;;;;5098836;28;20440;-63
2021/04/19 12:55:26;;;;;;;17.37;14.33;;;;;;;;;;5105465;28;20495;-62
2021/04/19 12:57:53;;;;;;;19.20;15.33;;;;;;;;;;5113671;28;20463;-63
2021/04/19 13:00:20;;;;;;;16.97;14.90;;;;;;;;;;5103354;28;20447;-63
2021/04/19 13:02:47;;;;;;;18.17;15.57;;;;;;;;;;5098207;28;20451;-63
2021/04/19 13:05:16;;;;;;;18.00;15.73;;;;;;;;;;5097818;28;20875;-62
2021/04/19 13:07:43;;;;;;;16.93;14.80;;;;;;;;;;5096834;28;20485;-62
2021/04/19 13:10:11;;;;;;;17.97;16.10;;;;;;;;;;5097196;28;20447;-64
2021/04/19 13:12:37;;;;;;;17.67;14.57;;;;;;;;;;5097167;28;20479;-63
2021/04/19 13:15:05;;;;;;;17.50;15.70;;;;;;;;;;5096900;28;21034;-64
2021/04/19 13:17:32;;;;;;;18.60;16.60;;;;;;;;;;5097356;28;20837;-63
2021/04/19 13:19:58;;;;;;;18.50;16.60;;;;;;;;;;5098262;28;20451;-63
2021/04/19 13:22:26;;;;;;;16.70;14.90;;;;;;;;;;5097333;28;20444;-63
2021/04/19 13:24:53;;;;;;;17.87;16.00;;;;;;;;;;5098023;28;20891;-63
2021/04/19 13:27:20;;;;;;;17.67;15.40;;;;;;;;;;5097250;28;20479;-63
2021/04/19 13:29:48;;;;;;;16.90;15.20;;;;;;;;;;5096920;28;20974;-62
2021/04/19 13:32:14;;;;;;;16.70;15.00;;;;;;;;;;5097394;28;20456;-63
2021/04/19 13:34:41;;;;;;;16.77;14.73;;;;;;;;;;5096927;28;20450;-62
2021/04/19 13:37:08;;;;;;;14.53;13.13;;;;;;;;;;5097078;28;20440;-62
2021/04/19 13:39:36;;;;;;;16.60;14.77;;;;;;;;;;5096345;28;20560;-61
2021/04/19 13:42:03;;;;;;;17.07;15.37;;;;;;;;;;5097993;28;20450;-62
2021/04/19 13:44:29;;;;;;;16.63;14.40;;;;;;;;;;5097881;28;20488;-62
2021/04/19 13:46:56;;;;;;;15.23;13.63;;;;;;;;;;5097830;28;20486;-61
2021/04/19 13:49:23;;;;;;;17.97;14.63;;;;;;;;;;5096413;28;20451;-61
2021/04/19 13:51:50;;;;;;;16.43;14.73;;;;;;;;;;5096861;28;20956;-62
2021/04/19 13:54:17;;;;;;;17.57;13.87;;;;;;;;;;5096715;28;20436;-62
2021/04/19 13:56:46;;;;;;;14.80;12.50;;;;;;;;;;5097231;28;20508;-60
2021/04/19 13:59:13;;;;;;;17.87;14.07;;;;;;;;;;5098089;28;20442;-60
2021/04/19 14:01:40;;;;;;;14.70;13.17;;;;;;;;;;5097644;28;20455;-61
2021/04/19 14:04:08;;;;;;;15.23;13.50;;;;;;;;;;5097118;28;20800;-60
2021/04/19 14:06:35;;;;;;;16.17;14.57;;;;;;;;;;5096498;28;20492;-60
2021/04/19 14:09:03;;;;;;;15.20;13.03;;;;;;;;;;5096776;28;20457;-60
2021/04/19 14:11:30;;;;;;;15.17;13.57;;;;;;;;;;5096447;28;20942;-61
2021/04/19 14:13:58;;;;;;;15.90;13.57;;;;;;;;;;5097034;28;20519;-60
2021/04/19 14:16:26;;;;;;;17.40;14.40;;;;;;;;;;5097442;28;20472;-60
2021/04/19 14:18:52;;;;;;;17.73;13.50;;;;;;;;;;5096757;28;20975;-62
2021/04/19 14:21:19;;;;;;;16.30;14.17;;;;;;;;;;5096674;28;20441;-62
2021/04/19 14:23:46;;;;;;;15.87;13.40;;;;;;;;;;5099894;28;20452;-64
2021/04/19 14:26:13;;;;;;;16.47;14.03;;;;;;;;;;5104386;28;20457;-63